sensor_id;sensor_type;location;lat;lon;timestamp;temperature;humidity
18932;DHT22;9598;50.954;3.112;2023-05-21T00:02:18;16.20;99.90
18932;DHT22;9598;50.954;3.112;2023-05-21T00:07:21;16.20;99.90
18932;DHT22;9598;50.954;3.112;2023-05-21T00:12:25;16.20;99.90
18932;DHT22;9598;50.954;3.112;2023-05-21T00:17:27;16.10;99.90
18932;DHT22;9598;50.954;3.112;2023-05-21T00:22:29;16.10;99.90
18932;DHT22;9598;50.954;3.112;2023-05-21T00:27:34;16.00;99.90
18932;DHT22;9598;50.954;3.112;2023-05-21T00:32:36;15.90;99.90
18932;DHT22;9598;50.954;3.112;2023-05-21T00:37:39;15.90;99.90
18932;DHT22;9598;50.954;3.112;2023-05-21T00:42:42;15.80;99.90
18932;DHT22;9598;50.954;3.112;2023-05-21T00:47:47;15.80;99.90
18932;DHT22;9598;50.954;3.112;2023-05-21T00:52:54;15.90;99.90
18932;DHT22;9598;50.954;3.112;2023-05-21T00:57:57;15.80;99.90
18932;DHT22;9598;50.954;3.112;2023-05-21T01:03:00;15.80;99.90
18932;DHT22;9598;50.954;3.112;2023-05-21T01:08:03;15.80;99.90
18932;DHT22;9598;50.954;3.112;2023-05-21T01:13:07;15.80;99.90
18932;DHT22;9598;50.954;3.112;2023-05-21T01:18:09;15.70;99.90
18932;DHT22;9598;50.954;3.112;2023-05-21T01:23:13;15.60;99.90
18932;DHT22;9598;50.954;3.112;2023-05-21T01:28:16;15.60;99.90
18932;DHT22;9598;50.954;3.112;2023-05-21T01:33:26;15.60;99.90
18932;DHT22;9598;50.954;3.112;2023-05-21T01:38:36;15.60;99.90
18932;DHT22;9598;50.954;3.112;2023-05-21T01:43:41;15.50;99.90
18932;DHT22;9598;50.954;3.112;2023-05-21T01:48:44;15.50;99.90
18932;DHT22;9598;50.954;3.112;2023-05-21T01:53:48;15.50;99.90
18932;DHT22;9598;50.954;3.112;2023-05-21T01:58:51;15.50;99.90
18932;DHT22;9598;50.954;3.112;2023-05-21T02:03:53;15.50;99.90
18932;DHT22;9598;50.954;3.112;2023-05-21T02:08:57;15.40;99.90
18932;DHT22;9598;50.954;3.112;2023-05-21T02:14:00;15.40;99.90
18932;DHT22;9598;50.954;3.112;2023-05-21T02:19:04;15.40;99.90
18932;DHT22;9598;50.954;3.112;2023-05-21T02:24:07;15.30;99.90
18932;DHT22;9598;50.954;3.112;2023-05-21T02:29:09;15.30;99.90
18932;DHT22;9598;50.954;3.112;2023-05-21T02:34:12;15.20;99.90
18932;DHT22;9598;50.954;3.112;2023-05-21T02:39:16;15.20;99.90
18932;DHT22;9598;50.954;3.112;2023-05-21T02:44:18;15.10;99.90
18932;DHT22;9598;50.954;3.112;2023-05-21T02:49:20;15.10;99.90
18932;DHT22;9598;50.954;3.112;2023-05-21T02:54:24;15.10;99.90
18932;DHT22;9598;50.954;3.112;2023-05-21T02:59:26;15.00;99.90
18932;DHT22;9598;50.954;3.112;2023-05-21T03:04:28;15.00;99.90
18932;DHT22;9598;50.954;3.112;2023-05-21T03:09:32;15.00;99.90
18932;DHT22;9598;50.954;3.112;2023-05-21T03:14:34;15.00;99.90
18932;DHT22;9598;50.954;3.112;2023-05-21T03:19:36;15.00;99.90
18932;DHT22;9598;50.954;3.112;2023-05-21T03:24:40;15.00;99.90
18932;DHT22;9598;50.954;3.112;2023-05-21T03:29:43;15.00;99.90
18932;DHT22;9598;50.954;3.112;2023-05-21T03:34:46;15.00;99.90
18932;DHT22;9598;50.954;3.112;2023-05-21T03:39:52;15.00;99.90
18932;DHT22;9598;50.954;3.112;2023-05-21T03:44:55;15.00;99.90
18932;DHT22;9598;50.954;3.112;2023-05-21T03:50:15;14.90;99.90
18932;DHT22;9598;50.954;3.112;2023-05-21T03:55:19;14.90;99.90
18932;DHT22;9598;50.954;3.112;2023-05-21T04:00:21;14.80;99.90
18932;DHT22;9598;50.954;3.112;2023-05-21T04:05:23;14.90;99.90
18932;DHT22;9598;50.954;3.112;2023-05-21T04:10:27;14.90;99.90
18932;DHT22;9598;50.954;3.112;2023-05-21T04:15:29;14.90;99.90
18932;DHT22;9598;50.954;3.112;2023-05-21T04:20:32;14.80;99.90
18932;DHT22;9598;50.954;3.112;2023-05-21T04:25:35;14.80;99.90
18932;DHT22;9598;50.954;3.112;2023-05-21T04:30:38;14.80;99.90
18932;DHT22;9598;50.954;3.112;2023-05-21T04:35:40;14.90;99.90
18932;DHT22;9598;50.954;3.112;2023-05-21T04:40:48;14.90;99.90
18932;DHT22;9598;50.954;3.112;2023-05-21T04:45:51;14.90;99.90
18932;DHT22;9598;50.954;3.112;2023-05-21T04:50:55;14.80;99.90
18932;DHT22;9598;50.954;3.112;2023-05-21T04:55:58;14.80;99.90
18932;DHT22;9598;50.954;3.112;2023-05-21T05:01:00;14.80;99.90
18932;DHT22;9598;50.954;3.112;2023-05-21T05:06:05;14.90;99.90
18932;DHT22;9598;50.954;3.112;2023-05-21T05:11:09;15.00;99.90
18932;DHT22;9598;50.954;3.112;2023-05-21T05:16:11;15.00;99.90
18932;DHT22;9598;50.954;3.112;2023-05-21T05:21:15;15.00;99.90
18932;DHT22;9598;50.954;3.112;2023-05-21T05:26:18;15.00;99.90
18932;DHT22;9598;50.954;3.112;2023-05-21T05:31:22;15.10;99.90
18932;DHT22;9598;50.954;3.112;2023-05-21T05:36:24;15.10;99.90
18932;DHT22;9598;50.954;3.112;2023-05-21T05:41:28;15.10;99.90
18932;DHT22;9598;50.954;3.112;2023-05-21T05:46:30;15.10;99.90
18932;DHT22;9598;50.954;3.112;2023-05-21T05:51:32;15.20;99.90
18932;DHT22;9598;50.954;3.112;2023-05-21T05:56:36;15.20;99.90
18932;DHT22;9598;50.954;3.112;2023-05-21T06:01:39;15.30;99.90
18932;DHT22;9598;50.954;3.112;2023-05-21T06:06:42;15.40;99.90
18932;DHT22;9598;50.954;3.112;2023-05-21T06:11:46;15.50;99.90
18932;DHT22;9598;50.954;3.112;2023-05-21T06:16:48;15.60;99.90
18932;DHT22;9598;50.954;3.112;2023-05-21T06:21:50;15.70;99.90
18932;DHT22;9598;50.954;3.112;2023-05-21T06:26:53;15.80;99.90
18932;DHT22;9598;50.954;3.112;2023-05-21T06:31:56;15.90;99.90
18932;DHT22;9598;50.954;3.112;2023-05-21T06:36:58;16.00;99.90
18932;DHT22;9598;50.954;3.112;2023-05-21T06:42:02;16.10;99.90
18932;DHT22;9598;50.954;3.112;2023-05-21T06:47:33;16.30;99.90
18932;DHT22;9598;50.954;3.112;2023-05-21T06:52:36;16.40;99.90
18932;DHT22;9598;50.954;3.112;2023-05-21T06:57:39;16.40;99.90
18932;DHT22;9598;50.954;3.112;2023-05-21T07:02:43;16.50;99.90
18932;DHT22;9598;50.954;3.112;2023-05-21T07:07:45;16.70;99.90
18932;DHT22;9598;50.954;3.112;2023-05-21T07:12:49;16.90;99.90
18932;DHT22;9598;50.954;3.112;2023-05-21T07:17:51;17.10;99.90
18932;DHT22;9598;50.954;3.112;2023-05-21T07:22:53;17.30;99.90
18932;DHT22;9598;50.954;3.112;2023-05-21T07:27:58;17.50;99.90
18932;DHT22;9598;50.954;3.112;2023-05-21T07:33:01;17.70;99.90
18932;DHT22;9598;50.954;3.112;2023-05-21T07:38:03;17.80;99.90
18932;DHT22;9598;50.954;3.112;2023-05-21T07:43:07;18.00;99.90
18932;DHT22;9598;50.954;3.112;2023-05-21T07:48:11;18.20;99.90
18932;DHT22;9598;50.954;3.112;2023-05-21T07:53:24;18.40;99.90
18932;DHT22;9598;50.954;3.112;2023-05-21T07:58:27;18.60;99.90
18932;DHT22;9598;50.954;3.112;2023-05-21T08:03:31;18.70;99.90
18932;DHT22;9598;50.954;3.112;2023-05-21T08:08:34;18.90;99.90
18932;DHT22;9598;50.954;3.112;2023-05-21T08:13:37;19.10;99.90
18932;DHT22;9598;50.954;3.112;2023-05-21T08:18:42;19.30;99.90
18932;DHT22;9598;50.954;3.112;2023-05-21T08:23:44;19.50;99.90
18932;DHT22;9598;50.954;3.112;2023-05-21T08:28:47;19.40;99.90
18932;DHT22;9598;50.954;3.112;2023-05-21T08:33:50;19.40;99.90
18932;DHT22;9598;50.954;3.112;2023-05-21T08:38:56;19.70;99.90
18932;DHT22;9598;50.954;3.112;2023-05-21T08:44:11;20.00;99.90
18932;DHT22;9598;50.954;3.112;2023-05-21T08:49:16;20.20;99.90
18932;DHT22;9598;50.954;3.112;2023-05-21T08:54:19;20.30;99.90
18932;DHT22;9598;50.954;3.112;2023-05-21T08:59:23;20.30;99.90
18932;DHT22;9598;50.954;3.112;2023-05-21T09:04:25;20.20;99.90
18932;DHT22;9598;50.954;3.112;2023-05-21T09:09:32;20.20;99.90
18932;DHT22;9598;50.954;3.112;2023-05-21T09:14:38;20.20;99.90
18932;DHT22;9598;50.954;3.112;2023-05-21T09:20:11;20.10;99.90
18932;DHT22;9598;50.954;3.112;2023-05-21T09:25:21;20.00;99.90
18932;DHT22;9598;50.954;3.112;2023-05-21T09:30:26;20.00;99.90
18932;DHT22;9598;50.954;3.112;2023-05-21T09:35:29;20.00;99.90
18932;DHT22;9598;50.954;3.112;2023-05-21T09:40:34;20.10;99.90
18932;DHT22;9598;50.954;3.112;2023-05-21T09:45:49;20.30;99.90
18932;DHT22;9598;50.954;3.112;2023-05-21T09:50:52;20.40;99.90
18932;DHT22;9598;50.954;3.112;2023-05-21T09:55:56;20.50;99.90
18932;DHT22;9598;50.954;3.112;2023-05-21T10:01:00;20.50;99.90
18932;DHT22;9598;50.954;3.112;2023-05-21T10:06:03;20.70;99.90
18932;DHT22;9598;50.954;3.112;2023-05-21T10:11:06;20.90;99.90
18932;DHT22;9598;50.954;3.112;2023-05-21T10:16:09;20.80;99.90
18932;DHT22;9598;50.954;3.112;2023-05-21T10:21:12;20.70;99.90
18932;DHT22;9598;50.954;3.112;2023-05-21T10:26:15;20.60;99.90
18932;DHT22;9598;50.954;3.112;2023-05-21T10:31:19;20.50;99.90
18932;DHT22;9598;50.954;3.112;2023-05-21T10:36:23;20.80;99.90
18932;DHT22;9598;50.954;3.112;2023-05-21T10:41:27;21.10;99.90
18932;DHT22;9598;50.954;3.112;2023-05-21T10:46:43;21.20;99.90
18932;DHT22;9598;50.954;3.112;2023-05-21T10:51:56;21.00;99.90
18932;DHT22;9598;50.954;3.112;2023-05-21T10:57:08;20.90;99.90
18932;DHT22;9598;50.954;3.112;2023-05-21T11:02:19;20.80;99.90
18932;DHT22;9598;50.954;3.112;2023-05-21T11:07:22;20.90;99.90
18932;DHT22;9598;50.954;3.112;2023-05-21T11:12:24;21.00;99.90
18932;DHT22;9598;50.954;3.112;2023-05-21T11:17:38;21.20;99.90
18932;DHT22;9598;50.954;3.112;2023-05-21T11:22:41;21.40;99.90
18932;DHT22;9598;50.954;3.112;2023-05-21T11:27:43;21.40;99.90
18932;DHT22;9598;50.954;3.112;2023-05-21T11:33:20;21.50;99.90
18932;DHT22;9598;50.954;3.112;2023-05-21T11:38:22;21.60;99.90
18932;DHT22;9598;50.954;3.112;2023-05-21T11:43:25;21.60;99.90
18932;DHT22;9598;50.954;3.112;2023-05-21T11:48:30;21.70;99.90
18932;DHT22;9598;50.954;3.112;2023-05-21T11:53:32;21.70;99.90
18932;DHT22;9598;50.954;3.112;2023-05-21T11:58:41;21.70;99.90
18932;DHT22;9598;50.954;3.112;2023-05-21T12:03:44;21.70;99.90
18932;DHT22;9598;50.954;3.112;2023-05-21T12:08:50;21.50;99.90
18932;DHT22;9598;50.954;3.112;2023-05-21T12:13:57;21.40;99.90
18932;DHT22;9598;50.954;3.112;2023-05-21T12:19:01;21.40;99.90
18932;DHT22;9598;50.954;3.112;2023-05-21T12:24:04;21.40;99.90
18932;DHT22;9598;50.954;3.112;2023-05-21T12:29:06;21.40;99.90
18932;DHT22;9598;50.954;3.112;2023-05-21T12:34:09;21.30;99.90
18932;DHT22;9598;50.954;3.112;2023-05-21T12:39:12;21.40;99.90
18932;DHT22;9598;50.954;3.112;2023-05-21T12:44:14;21.40;99.90
18932;DHT22;9598;50.954;3.112;2023-05-21T12:49:34;21.40;99.90
18932;DHT22;9598;50.954;3.112;2023-05-21T12:54:38;21.50;99.90
18932;DHT22;9598;50.954;3.112;2023-05-21T12:59:45;21.60;99.90
18932;DHT22;9598;50.954;3.112;2023-05-21T13:04:53;21.60;99.90
18932;DHT22;9598;50.954;3.112;2023-05-21T13:09:56;21.60;99.90
18932;DHT22;9598;50.954;3.112;2023-05-21T13:15:00;21.60;99.90
18932;DHT22;9598;50.954;3.112;2023-05-21T13:20:08;21.50;99.90
18932;DHT22;9598;50.954;3.112;2023-05-21T13:25:13;21.50;99.90
18932;DHT22;9598;50.954;3.112;2023-05-21T13:30:15;21.50;99.90
18932;DHT22;9598;50.954;3.112;2023-05-21T13:35:19;21.40;99.90
18932;DHT22;9598;50.954;3.112;2023-05-21T13:40:21;21.30;99.90
18932;DHT22;9598;50.954;3.112;2023-05-21T13:45:23;21.30;99.90
18932;DHT22;9598;50.954;3.112;2023-05-21T13:50:30;21.10;99.90
18932;DHT22;9598;50.954;3.112;2023-05-21T13:55:32;21.10;99.90
18932;DHT22;9598;50.954;3.112;2023-05-21T14:00:34;21.00;99.90
18932;DHT22;9598;50.954;3.112;2023-05-21T14:05:37;20.90;99.90
18932;DHT22;9598;50.954;3.112;2023-05-21T14:10:39;20.80;99.90
18932;DHT22;9598;50.954;3.112;2023-05-21T14:15:42;20.70;99.90
18932;DHT22;9598;50.954;3.112;2023-05-21T14:20:45;20.70;99.90
18932;DHT22;9598;50.954;3.112;2023-05-21T14:25:47;20.60;99.90
18932;DHT22;9598;50.954;3.112;2023-05-21T14:30:49;20.60;99.90
18932;DHT22;9598;50.954;3.112;2023-05-21T14:35:53;20.60;99.90
18932;DHT22;9598;50.954;3.112;2023-05-21T14:40:55;20.60;99.90
18932;DHT22;9598;50.954;3.112;2023-05-21T14:45:57;20.60;99.90
18932;DHT22;9598;50.954;3.112;2023-05-21T14:51:01;20.80;99.90
18932;DHT22;9598;50.954;3.112;2023-05-21T14:56:03;20.80;99.90
18932;DHT22;9598;50.954;3.112;2023-05-21T15:01:05;20.70;99.90
18932;DHT22;9598;50.954;3.112;2023-05-21T15:06:09;20.60;99.90
18932;DHT22;9598;50.954;3.112;2023-05-21T15:11:11;20.60;99.90
18932;DHT22;9598;50.954;3.112;2023-05-21T15:16:13;20.60;99.90
18932;DHT22;9598;50.954;3.112;2023-05-21T15:21:16;20.60;99.90
18932;DHT22;9598;50.954;3.112;2023-05-21T15:26:18;20.60;99.90
18932;DHT22;9598;50.954;3.112;2023-05-21T15:31:21;20.70;99.90
18932;DHT22;9598;50.954;3.112;2023-05-21T15:36:24;20.60;99.90
18932;DHT22;9598;50.954;3.112;2023-05-21T15:41:26;20.60;99.90
18932;DHT22;9598;50.954;3.112;2023-05-21T15:46:28;20.50;99.90
18932;DHT22;9598;50.954;3.112;2023-05-21T15:51:32;20.30;99.90
18932;DHT22;9598;50.954;3.112;2023-05-21T15:56:34;20.20;99.90
18932;DHT22;9598;50.954;3.112;2023-05-21T16:01:36;20.20;99.90
18932;DHT22;9598;50.954;3.112;2023-05-21T16:06:40;20.20;99.90
18932;DHT22;9598;50.954;3.112;2023-05-21T16:11:42;20.10;99.90
18932;DHT22;9598;50.954;3.112;2023-05-21T16:16:44;20.00;99.90
18932;DHT22;9598;50.954;3.112;2023-05-21T16:21:47;19.90;99.90
18932;DHT22;9598;50.954;3.112;2023-05-21T16:26:50;19.90;99.90
18932;DHT22;9598;50.954;3.112;2023-05-21T16:31:52;19.90;99.90
18932;DHT22;9598;50.954;3.112;2023-05-21T16:36:56;19.80;99.90
18932;DHT22;9598;50.954;3.112;2023-05-21T16:41:59;19.70;99.90
18932;DHT22;9598;50.954;3.112;2023-05-21T16:47:01;19.70;99.90
18932;DHT22;9598;50.954;3.112;2023-05-21T16:52:05;19.50;99.90
18932;DHT22;9598;50.954;3.112;2023-05-21T16:57:07;19.30;99.90
18932;DHT22;9598;50.954;3.112;2023-05-21T17:02:11;19.20;99.90
18932;DHT22;9598;50.954;3.112;2023-05-21T17:07:15;19.10;99.90
18932;DHT22;9598;50.954;3.112;2023-05-21T17:12:17;19.00;99.90
18932;DHT22;9598;50.954;3.112;2023-05-21T17:17:19;18.90;99.90
18932;DHT22;9598;50.954;3.112;2023-05-21T17:22:23;18.90;99.90
18932;DHT22;9598;50.954;3.112;2023-05-21T17:27:25;18.90;99.90
18932;DHT22;9598;50.954;3.112;2023-05-21T17:32:27;18.90;99.90
18932;DHT22;9598;50.954;3.112;2023-05-21T17:37:31;18.80;99.90
18932;DHT22;9598;50.954;3.112;2023-05-21T17:42:33;18.70;99.90
18932;DHT22;9598;50.954;3.112;2023-05-21T17:47:35;18.50;99.90
18932;DHT22;9598;50.954;3.112;2023-05-21T17:52:43;18.50;99.90
18932;DHT22;9598;50.954;3.112;2023-05-21T17:57:45;18.40;99.90
18932;DHT22;9598;50.954;3.112;2023-05-21T18:02:47;18.40;99.90
18932;DHT22;9598;50.954;3.112;2023-05-21T18:07:51;18.40;99.90
18932;DHT22;9598;50.954;3.112;2023-05-21T18:12:53;18.40;99.90
18932;DHT22;9598;50.954;3.112;2023-05-21T18:17:55;18.30;99.90
18932;DHT22;9598;50.954;3.112;2023-05-21T18:22:59;18.30;99.90
18932;DHT22;9598;50.954;3.112;2023-05-21T18:28:01;18.30;99.90
18932;DHT22;9598;50.954;3.112;2023-05-21T18:33:03;18.20;99.90
18932;DHT22;9598;50.954;3.112;2023-05-21T18:38:09;18.10;99.90
18932;DHT22;9598;50.954;3.112;2023-05-21T18:43:11;18.10;99.90
18932;DHT22;9598;50.954;3.112;2023-05-21T18:48:13;18.00;99.90
18932;DHT22;9598;50.954;3.112;2023-05-21T18:53:17;18.00;99.90
18932;DHT22;9598;50.954;3.112;2023-05-21T18:58:19;18.00;99.90
18932;DHT22;9598;50.954;3.112;2023-05-21T19:03:21;17.90;99.90
18932;DHT22;9598;50.954;3.112;2023-05-21T19:08:24;17.80;99.90
18932;DHT22;9598;50.954;3.112;2023-05-21T19:13:27;17.60;99.90
18932;DHT22;9598;50.954;3.112;2023-05-21T19:18:29;17.60;99.90
18932;DHT22;9598;50.954;3.112;2023-05-21T19:23:33;17.60;99.90
18932;DHT22;9598;50.954;3.112;2023-05-21T19:28:35;17.60;99.90
18932;DHT22;9598;50.954;3.112;2023-05-21T19:33:37;17.50;99.90
18932;DHT22;9598;50.954;3.112;2023-05-21T19:38:46;17.50;99.90
18932;DHT22;9598;50.954;3.112;2023-05-21T19:43:49;17.50;99.90
18932;DHT22;9598;50.954;3.112;2023-05-21T19:48:52;17.40;99.90
18932;DHT22;9598;50.954;3.112;2023-05-21T19:53:55;17.30;99.90
18932;DHT22;9598;50.954;3.112;2023-05-21T19:58:57;17.30;99.90
18932;DHT22;9598;50.954;3.112;2023-05-21T20:03:59;17.20;99.90
18932;DHT22;9598;50.954;3.112;2023-05-21T20:09:03;17.00;99.90
18932;DHT22;9598;50.954;3.112;2023-05-21T20:14:05;16.90;99.90
18932;DHT22;9598;50.954;3.112;2023-05-21T20:19:07;16.80;99.90
18932;DHT22;9598;50.954;3.112;2023-05-21T20:24:11;16.80;99.90
18932;DHT22;9598;50.954;3.112;2023-05-21T20:29:13;16.70;99.90
18932;DHT22;9598;50.954;3.112;2023-05-21T20:34:16;16.60;99.90
18932;DHT22;9598;50.954;3.112;2023-05-21T20:39:21;16.50;99.90
18932;DHT22;9598;50.954;3.112;2023-05-21T20:44:24;16.50;99.90
18932;DHT22;9598;50.954;3.112;2023-05-21T20:49:27;16.40;99.90
18932;DHT22;9598;50.954;3.112;2023-05-21T20:54:34;16.40;99.90
18932;DHT22;9598;50.954;3.112;2023-05-21T20:59:36;16.30;99.90
18932;DHT22;9598;50.954;3.112;2023-05-21T21:04:38;16.30;99.90
18932;DHT22;9598;50.954;3.112;2023-05-21T21:09:43;16.20;99.90
18932;DHT22;9598;50.954;3.112;2023-05-21T21:14:45;16.20;99.90
18932;DHT22;9598;50.954;3.112;2023-05-21T21:19:47;16.10;99.90
18932;DHT22;9598;50.954;3.112;2023-05-21T21:24:51;16.10;99.90
18932;DHT22;9598;50.954;3.112;2023-05-21T21:29:53;16.10;99.90
18932;DHT22;9598;50.954;3.112;2023-05-21T21:34:55;16.00;99.90
18932;DHT22;9598;50.954;3.112;2023-05-21T21:39:59;16.00;99.90
18932;DHT22;9598;50.954;3.112;2023-05-21T21:45:01;16.00;99.90
18932;DHT22;9598;50.954;3.112;2023-05-21T21:50:10;16.00;99.90
18932;DHT22;9598;50.954;3.112;2023-05-21T21:55:15;16.10;99.90
18932;DHT22;9598;50.954;3.112;2023-05-21T22:00:18;16.00;99.90
18932;DHT22;9598;50.954;3.112;2023-05-21T22:05:25;15.90;99.90
18932;DHT22;9598;50.954;3.112;2023-05-21T22:10:31;15.80;99.90
18932;DHT22;9598;50.954;3.112;2023-05-21T22:15:37;15.80;99.90
18932;DHT22;9598;50.954;3.112;2023-05-21T22:20:39;15.80;99.90
18932;DHT22;9598;50.954;3.112;2023-05-21T22:25:44;15.70;99.90
18932;DHT22;9598;50.954;3.112;2023-05-21T22:30:47;15.60;99.90
18932;DHT22;9598;50.954;3.112;2023-05-21T22:35:49;15.60;99.90
18932;DHT22;9598;50.954;3.112;2023-05-21T22:40:53;15.60;99.90
18932;DHT22;9598;50.954;3.112;2023-05-21T22:45:55;15.50;99.90
18932;DHT22;9598;50.954;3.112;2023-05-21T22:50:59;15.50;99.90
18932;DHT22;9598;50.954;3.112;2023-05-21T22:56:03;15.50;99.90
18932;DHT22;9598;50.954;3.112;2023-05-21T23:01:05;15.40;99.90
18932;DHT22;9598;50.954;3.112;2023-05-21T23:06:07;15.40;99.90
18932;DHT22;9598;50.954;3.112;2023-05-21T23:11:10;15.30;99.90
18932;DHT22;9598;50.954;3.112;2023-05-21T23:16:12;15.30;99.90
18932;DHT22;9598;50.954;3.112;2023-05-21T23:21:14;15.40;99.90
18932;DHT22;9598;50.954;3.112;2023-05-21T23:26:18;15.40;99.90
18932;DHT22;9598;50.954;3.112;2023-05-21T23:31:21;15.30;99.90
18932;DHT22;9598;50.954;3.112;2023-05-21T23:36:23;15.30;99.90
18932;DHT22;9598;50.954;3.112;2023-05-21T23:41:26;15.20;99.90
18932;DHT22;9598;50.954;3.112;2023-05-21T23:46:29;15.20;99.90
18932;DHT22;9598;50.954;3.112;2023-05-21T23:51:31;15.20;99.90
18932;DHT22;9598;50.954;3.112;2023-05-21T23:56:34;15.20;99.90
